createdAt,value
2019-05-03T00:00:46.885Z,5.58
2019-05-03T00:03:17.215Z,4.80
2019-05-03T00:05:55.755Z,4.75
2019-05-03T00:08:33.377Z,5.33
2019-05-03T00:11:08.765Z,5.05
2019-05-03T00:13:41.902Z,4.50
2019-05-03T00:16:21.813Z,5.12
2019-05-03T00:18:53.155Z,5.00
2019-05-03T00:21:32.565Z,4.78
2019-05-03T00:24:02.454Z,5.00
2019-05-03T00:26:37.345Z,4.87
2019-05-03T00:29:06.326Z,4.35
2019-05-03T00:31:48.123Z,5.00
2019-05-03T00:34:22.528Z,4.80
2019-05-03T00:36:57.785Z,4.92
2019-05-03T00:39:33.715Z,4.80
2019-05-03T00:42:09.165Z,4.72
2019-05-03T00:44:43.084Z,4.45
2019-05-03T00:47:18.025Z,5.28
2019-05-03T00:49:49.555Z,4.65
2019-05-03T00:52:18.315Z,4.65
2019-05-03T00:54:56.354Z,5.35
2019-05-03T00:57:33.345Z,4.92
2019-05-03T01:00:07.165Z,4.47
2019-05-03T01:02:42.204Z,4.90
2019-05-03T01:05:17.015Z,4.70
2019-05-03T01:07:49.185Z,4.67
2019-05-03T01:10:23.195Z,4.53
2019-05-03T01:12:58.235Z,4.70
2019-05-03T01:15:53.234Z,5.03
2019-05-03T01:18:27.234Z,4.58
2019-05-03T01:21:02.235Z,4.87
2019-05-03T01:23:35.146Z,4.97
2019-05-03T01:26:09.175Z,4.65
2019-05-03T01:28:40.103Z,4.70
2019-05-03T01:31:08.988Z,4.60
2019-05-03T01:33:44.985Z,4.62
2019-05-03T01:36:14.675Z,5.00
2019-05-03T01:38:47.145Z,4.83
2019-05-03T01:41:21.661Z,4.80
2019-05-03T01:43:52.857Z,4.90
2019-05-03T01:46:36.555Z,5.03
2019-05-03T01:49:16.196Z,4.58
2019-05-03T01:51:58.355Z,4.67
2019-05-03T01:54:27.435Z,4.80
2019-05-03T01:57:21.715Z,4.50
2019-05-03T01:59:58.864Z,4.83
2019-05-03T02:02:33.885Z,4.35
2019-05-03T02:05:09.215Z,4.62
2019-05-03T02:07:42.503Z,4.40
2019-05-03T02:10:19.103Z,5.35
2019-05-03T02:12:49.545Z,5.20
2019-05-03T02:15:18.275Z,4.67
2019-05-03T02:17:52.046Z,4.62
2019-05-03T02:20:24.065Z,5.22
2019-05-03T02:22:54.825Z,4.50
2019-05-03T02:27:58.735Z,4.72
2019-05-03T02:30:33.496Z,4.40
2019-05-03T02:33:08.926Z,4.45
2019-05-03T02:35:43.239Z,4.75
2019-05-03T02:38:15.637Z,4.70
2019-05-03T02:40:53.439Z,4.75
2019-05-03T02:43:29.155Z,4.28
2019-05-03T02:46:05.644Z,4.70
2019-05-03T02:48:36.403Z,4.45
2019-05-03T02:51:15.643Z,4.83
2019-05-03T02:53:47.345Z,4.95
2019-05-03T02:56:26.166Z,4.53
2019-05-03T02:58:55.726Z,4.53
2019-05-03T03:01:35.563Z,5.05
2019-05-03T03:04:08.095Z,4.35
2019-05-03T03:06:42.515Z,4.87
2019-05-03T03:09:16.436Z,4.42
2019-05-03T03:11:46.473Z,4.33
2019-05-03T03:14:20.665Z,4.45
2019-05-03T03:16:58.074Z,4.60
2019-05-03T03:19:35.236Z,4.60
2019-05-03T03:22:09.243Z,4.58
2019-05-03T03:24:40.083Z,4.72
2019-05-03T03:30:00.957Z,4.70
2019-05-03T03:32:38.019Z,4.85
2019-05-03T03:35:21.813Z,4.60
2019-05-03T03:37:55.745Z,4.62
2019-05-03T03:40:29.244Z,4.80
2019-05-03T03:43:02.036Z,4.50
2019-05-03T03:45:49.245Z,4.60
2019-05-03T03:48:26.763Z,4.55
2019-05-03T03:51:05.026Z,4.70
2019-05-03T03:53:35.564Z,4.42
2019-05-03T03:56:15.922Z,4.53
2019-05-03T03:58:49.226Z,4.50
2019-05-03T04:01:26.688Z,4.17
2019-05-03T04:04:05.553Z,4.97
2019-05-03T04:06:46.407Z,4.28
2019-05-03T04:09:17.249Z,4.47
2019-05-03T04:11:47.804Z,4.50
2019-05-03T04:14:18.216Z,4.87
2019-05-03T04:16:56.264Z,4.50
2019-05-03T04:19:39.936Z,4.40
2019-05-03T04:22:16.411Z,4.58
2019-05-03T04:24:47.746Z,4.33
2019-05-03T04:27:27.892Z,4.60
2019-05-03T04:30:08.446Z,4.15
2019-05-03T04:32:37.656Z,4.40
2019-05-03T04:35:07.404Z,4.75
2019-05-03T04:37:39.983Z,4.40
2019-05-03T04:40:17.036Z,4.80
2019-05-03T04:42:49.218Z,4.70
2019-05-03T04:45:18.995Z,4.87
2019-05-03T04:47:56.167Z,4.70
2019-05-03T04:50:31.150Z,4.92
2019-05-03T04:53:00.546Z,4.47
2019-05-03T04:55:32.284Z,4.58
2019-05-03T04:58:01.056Z,4.47
2019-05-03T05:03:29.185Z,4.47
2019-05-03T05:05:59.657Z,4.40
2019-05-03T05:08:28.614Z,4.60
2019-05-03T05:10:59.845Z,4.40
2019-05-03T05:13:36.535Z,4.83
2019-05-03T05:16:08.629Z,4.35
2019-05-03T05:18:42.075Z,4.78
2019-05-03T05:21:16.685Z,4.80
2019-05-03T05:23:51.643Z,4.62
2019-05-03T05:26:30.775Z,4.55
2019-05-03T05:29:01.118Z,4.42
2019-05-03T05:31:36.952Z,4.12
2019-05-03T05:34:12.795Z,4.47
2019-05-03T05:36:45.006Z,4.50
2019-05-03T05:39:18.597Z,4.25
2019-05-03T05:41:52.948Z,4.53
2019-05-03T05:44:28.154Z,4.37
2019-05-03T05:47:04.730Z,4.42
2019-05-03T05:49:51.815Z,4.65
2019-05-03T05:52:24.398Z,4.28
2019-05-03T05:54:58.086Z,4.40
2019-05-03T05:57:40.704Z,4.12
2019-05-03T06:00:15.208Z,4.20
2019-05-03T06:02:56.255Z,4.10
2019-05-03T06:05:28.995Z,4.30
2019-05-03T06:08:15.090Z,4.33
2019-05-03T06:10:57.475Z,4.00
2019-05-03T06:13:31.174Z,3.90
2019-05-03T06:16:15.374Z,4.30
2019-05-03T06:18:54.790Z,4.17
2019-05-03T06:21:28.165Z,4.00
2019-05-03T06:24:01.164Z,4.00
2019-05-03T06:26:38.664Z,3.80
2019-05-03T06:29:10.115Z,4.00
2019-05-03T06:31:44.694Z,3.87
2019-05-03T06:34:15.157Z,4.00
2019-05-03T06:36:55.301Z,4.08
2019-05-03T06:39:35.342Z,4.37
2019-05-03T06:45:09.674Z,3.75
2019-05-03T06:47:40.280Z,3.70
2019-05-03T06:50:10.212Z,3.98
2019-05-03T06:52:45.075Z,3.80
2019-05-03T06:55:35.085Z,4.00
2019-05-03T06:58:08.795Z,3.80
2019-05-03T07:00:56.835Z,3.95
2019-05-03T07:03:29.995Z,3.90
2019-05-03T07:06:32.608Z,4.10
2019-05-03T07:08:55.635Z,3.58
2019-05-03T07:11:34.783Z,3.87
2019-05-03T07:14:06.116Z,3.52
2019-05-03T07:16:40.076Z,3.55
2019-05-03T07:19:12.396Z,3.67
2019-05-03T07:21:42.115Z,3.75
2019-05-03T07:24:14.866Z,3.60
2019-05-03T07:26:50.005Z,3.60
2019-05-03T07:35:57.356Z,3.35
2019-05-03T07:38:47.326Z,3.22
2019-05-03T07:43:51.365Z,3.67
2019-05-03T07:46:24.792Z,3.70
2019-05-03T07:48:56.004Z,4.15
2019-05-03T07:51:26.447Z,5.33
2019-05-03T07:53:57.808Z,3.77
2019-05-03T07:59:09.795Z,4.95
2019-05-03T08:01:50.321Z,5.47
2019-05-03T08:04:27.245Z,7.30
2019-05-03T08:07:00.701Z,6.92
2019-05-03T08:09:29.578Z,7.33
2019-05-03T08:12:01.286Z,7.47
2019-05-03T08:14:35.522Z,8.10
2019-05-03T08:17:08.075Z,8.88
2019-05-03T08:19:42.126Z,8.50
2019-05-03T08:22:31.855Z,8.10
2019-05-03T08:25:05.431Z,8.43
2019-05-03T08:27:35.300Z,8.28
2019-05-03T08:30:10.204Z,8.30
2019-05-03T08:32:50.566Z,8.88
2019-05-03T08:35:21.715Z,8.88
2019-05-03T08:37:59.096Z,8.13
2019-05-03T08:40:31.256Z,8.60
2019-05-03T08:43:02.005Z,7.17
2019-05-03T08:48:05.513Z,8.05
2019-05-03T08:50:41.069Z,8.53
2019-05-03T08:53:09.903Z,7.90
2019-05-03T08:55:44.811Z,7.67
2019-05-03T08:58:20.226Z,8.15
2019-05-03T09:00:52.096Z,7.67
2019-05-03T09:03:22.316Z,7.97
2019-05-03T09:05:51.198Z,7.37
2019-05-03T09:08:35.264Z,7.58
2019-05-03T09:11:09.145Z,7.15
2019-05-03T09:13:42.656Z,6.22
2019-05-03T09:16:17.264Z,6.62
2019-05-03T09:18:50.166Z,6.72
2019-05-03T09:21:25.480Z,6.70
2019-05-03T09:23:57.165Z,6.60
2019-05-03T09:26:29.194Z,7.60
2019-05-03T09:28:57.915Z,6.53
2019-05-03T09:31:35.378Z,7.15
2019-05-03T09:34:14.788Z,5.87
2019-05-03T09:36:47.725Z,6.50
2019-05-03T09:39:16.486Z,6.35
2019-05-03T09:42:06.105Z,6.28
2019-05-03T09:44:38.305Z,6.97
2019-05-03T09:47:07.355Z,5.50
2019-05-03T09:49:36.970Z,6.28
2019-05-03T09:52:09.479Z,5.67
2019-05-03T09:54:42.135Z,6.15
2019-05-03T09:57:15.273Z,5.70
2019-05-03T09:59:56.603Z,5.53
2019-05-03T10:02:20.655Z,5.65
2019-05-03T10:04:51.215Z,5.70
2019-05-03T10:07:25.793Z,5.10
2019-05-03T10:09:59.217Z,4.75
2019-05-03T10:12:28.066Z,5.30
2019-05-03T10:14:58.237Z,5.40
2019-05-03T10:17:35.370Z,5.05
2019-05-03T10:20:09.558Z,4.53
2019-05-03T10:22:39.235Z,4.78
2019-05-03T10:25:12.115Z,4.87
2019-05-03T10:27:46.535Z,4.47
2019-05-03T10:30:20.145Z,3.65
2019-05-03T10:32:51.085Z,4.80
2019-05-03T10:35:19.835Z,4.10
2019-05-03T10:37:54.890Z,4.90
2019-05-03T10:40:31.486Z,4.45
2019-05-03T10:43:00.255Z,4.58
2019-05-03T10:45:30.065Z,4.55
2019-05-03T10:48:01.006Z,4.50
2019-05-03T10:50:34.950Z,4.65
2019-05-03T10:53:15.213Z,4.30
2019-05-03T10:55:46.118Z,4.55
2019-05-03T10:58:16.494Z,4.37
2019-05-03T11:00:53.516Z,4.65
2019-05-03T11:03:25.595Z,4.47
2019-05-03T11:05:54.846Z,4.90
2019-05-03T11:08:25.745Z,4.42
2019-05-03T11:10:56.976Z,4.80
2019-05-03T11:13:27.705Z,4.78
2019-05-03T11:15:59.355Z,5.12
2019-05-03T11:18:28.315Z,4.67
2019-05-03T11:21:14.378Z,4.33
2019-05-03T11:23:34.684Z,4.62
2019-05-03T11:26:03.456Z,4.45
2019-05-03T11:28:39.075Z,4.50
2019-05-03T11:31:10.223Z,4.60
2019-05-03T11:33:45.640Z,5.12
2019-05-03T11:36:20.495Z,4.47
2019-05-03T11:38:55.859Z,4.40
2019-05-03T11:41:32.038Z,5.28
2019-05-03T11:43:59.545Z,4.45
2019-05-03T11:46:31.431Z,5.03
2019-05-03T11:49:02.866Z,4.83
2019-05-03T11:51:35.367Z,4.90
2019-05-03T11:54:08.955Z,5.20
2019-05-03T11:56:39.875Z,5.47
2019-05-03T11:59:10.315Z,5.05
2019-05-03T12:01:40.635Z,5.10
2019-05-03T12:04:09.435Z,4.80
2019-05-03T12:06:38.225Z,5.00
2019-05-03T12:09:07.495Z,4.75
2019-05-03T12:11:38.355Z,5.03
2019-05-03T12:17:16.710Z,4.92
2019-05-03T12:19:58.992Z,5.53
2019-05-03T12:22:30.649Z,4.70
2019-05-03T12:25:03.565Z,5.12
2019-05-03T12:27:36.295Z,5.20
2019-05-03T12:30:10.017Z,5.17
2019-05-03T12:32:42.065Z,5.22
2019-05-03T12:35:11.395Z,5.03
2019-05-03T12:37:41.945Z,4.65
2019-05-03T12:40:12.175Z,4.72
2019-05-03T12:42:41.525Z,4.67
2019-05-03T12:45:11.974Z,4.28
2019-05-03T12:47:41.565Z,5.10
2019-05-03T12:50:11.325Z,4.70
2019-05-03T12:52:49.868Z,4.72
2019-05-03T12:55:15.363Z,3.87
2019-05-03T12:57:45.742Z,4.58
2019-05-03T13:00:20.535Z,4.25
2019-05-03T13:03:06.335Z,4.15
2019-05-03T13:05:39.335Z,4.75
2019-05-03T13:08:31.156Z,4.42
2019-05-03T13:11:01.293Z,4.20
2019-05-03T13:13:32.945Z,4.60
2019-05-03T13:16:04.644Z,4.53
2019-05-03T13:18:39.625Z,4.87
2019-05-03T13:21:08.915Z,4.33
2019-05-03T13:23:40.325Z,3.90
2019-05-03T13:26:09.235Z,3.62
2019-05-03T13:28:38.257Z,3.70
2019-05-03T13:31:09.015Z,3.72
2019-05-03T13:36:07.395Z,3.90
2019-05-03T13:38:36.206Z,4.28
2019-05-03T13:41:09.474Z,3.67
2019-05-03T13:43:38.803Z,3.70
2019-05-03T13:46:08.065Z,3.90
2019-05-03T13:48:45.305Z,3.50
2019-05-03T13:51:08.606Z,3.47
2019-05-03T13:53:39.885Z,3.50
2019-05-03T13:56:09.367Z,3.30
2019-05-03T13:58:39.276Z,3.55
2019-05-03T14:01:10.224Z,3.55
2019-05-03T14:03:38.955Z,3.60
2019-05-03T14:06:10.146Z,4.05
2019-05-03T14:08:39.855Z,3.67
2019-05-03T14:11:09.874Z,3.42
2019-05-03T14:13:40.815Z,3.55
2019-05-03T14:16:11.345Z,3.25
2019-05-03T14:18:41.429Z,3.90
2019-05-03T14:24:10.676Z,3.37
2019-05-03T14:26:42.040Z,3.63
2019-05-03T14:29:14.629Z,3.25
2019-05-03T14:31:45.406Z,3.90
2019-05-03T14:34:17.153Z,3.47
2019-05-03T14:36:45.455Z,3.30
2019-05-03T14:39:15.605Z,3.50
2019-05-03T14:41:47.976Z,4.00
2019-05-03T14:44:18.515Z,3.72
2019-05-03T14:46:49.746Z,3.58
2019-05-03T14:49:20.886Z,3.77
2019-05-03T14:51:51.659Z,4.10
2019-05-03T14:56:53.785Z,4.03
2019-05-03T14:59:41.125Z,3.58
2019-05-03T15:02:20.786Z,3.83
2019-05-03T15:04:50.795Z,4.30
2019-05-03T15:07:22.235Z,5.22
2019-05-03T15:09:52.255Z,4.58
2019-05-03T15:12:20.785Z,4.65
2019-05-03T15:14:49.525Z,4.37
2019-05-03T15:17:18.728Z,4.37
2019-05-03T15:19:48.066Z,4.33
2019-05-03T15:22:17.225Z,4.15
2019-05-03T15:24:45.996Z,4.45
2019-05-03T15:27:17.565Z,4.70
2019-05-03T15:29:46.555Z,4.47
2019-05-03T15:32:15.558Z,4.53
2019-05-03T15:34:44.895Z,3.80
2019-05-03T15:37:14.865Z,4.50
2019-05-03T15:39:45.276Z,4.05
2019-05-03T15:42:20.735Z,5.00
2019-05-03T15:44:54.623Z,4.22
2019-05-03T15:47:43.505Z,4.37
2019-05-03T15:50:12.416Z,4.10
2019-05-03T15:52:42.105Z,4.90
2019-05-03T15:55:15.118Z,4.55
2019-05-03T15:57:48.295Z,3.90
2019-05-03T16:00:18.405Z,4.12
2019-05-03T16:02:47.468Z,4.42
2019-05-03T16:05:18.436Z,4.00
2019-05-03T16:07:49.185Z,4.28
2019-05-03T16:12:47.086Z,3.83
2019-05-03T16:15:17.175Z,4.00
2019-05-03T16:17:47.203Z,4.28
2019-05-03T16:20:19.115Z,4.45
2019-05-03T16:22:50.102Z,4.05
2019-05-03T16:25:20.116Z,4.70
2019-05-03T16:27:55.329Z,4.17
2019-05-03T16:30:32.465Z,3.80
2019-05-03T16:33:01.235Z,4.50
2019-05-03T16:35:31.246Z,4.53
2019-05-03T16:38:01.466Z,4.35
2019-05-03T16:40:31.996Z,4.62
2019-05-03T16:43:04.455Z,4.80
2019-05-03T16:45:40.115Z,4.37
2019-05-03T16:48:08.895Z,3.72
2019-05-03T16:50:39.027Z,4.35
2019-05-03T16:53:08.735Z,3.85
2019-05-03T16:55:37.835Z,4.20
2019-05-03T16:58:07.635Z,12.58
2019-05-03T17:00:36.890Z,9.23
2019-05-03T17:03:07.783Z,8.08
2019-05-03T17:08:45.166Z,7.20
2019-05-03T17:11:15.735Z,7.25
2019-05-03T17:16:16.155Z,8.48
2019-05-03T17:18:48.443Z,7.65
2019-05-03T17:21:18.385Z,7.60
2019-05-03T17:23:46.814Z,8.20
2019-05-03T17:26:17.479Z,7.12
2019-05-03T17:28:49.016Z,7.10
2019-05-03T17:31:19.396Z,6.90
2019-05-03T17:33:53.557Z,6.70
2019-05-03T17:36:21.725Z,7.17
2019-05-03T17:38:52.476Z,7.17
2019-05-03T17:41:30.015Z,7.78
2019-05-03T17:44:00.785Z,6.80
2019-05-03T17:48:59.316Z,6.75
2019-05-03T17:51:45.464Z,7.05
2019-05-03T17:54:15.805Z,6.42
2019-05-03T17:57:04.466Z,6.60
2019-05-03T17:59:46.735Z,6.08
2019-05-03T18:02:30.714Z,5.33
2019-05-03T18:05:18.484Z,5.87
2019-05-03T18:07:57.073Z,6.03
2019-05-03T18:10:28.307Z,5.58
2019-05-03T18:13:00.475Z,5.62
2019-05-03T18:15:31.205Z,5.58
2019-05-03T18:18:01.224Z,5.58
2019-05-03T18:20:31.248Z,5.83
2019-05-03T18:23:00.975Z,5.00
2019-05-03T18:25:29.905Z,5.10
2019-05-03T18:28:00.952Z,6.20
2019-05-03T18:30:30.119Z,5.55
2019-05-03T18:33:00.944Z,5.20
2019-05-03T18:38:00.544Z,5.08
2019-05-03T18:40:31.075Z,5.97
2019-05-03T18:43:01.435Z,4.90
2019-05-03T18:45:46.715Z,5.55
2019-05-03T18:48:18.952Z,4.65
2019-05-03T18:50:49.775Z,4.72
2019-05-03T18:55:51.345Z,5.60
2019-05-03T18:58:26.545Z,5.50
2019-05-03T19:00:56.195Z,5.83
2019-05-03T19:03:25.723Z,5.25
2019-05-03T19:05:59.315Z,5.33
2019-05-03T19:08:40.495Z,4.92
2019-05-03T19:11:28.778Z,4.80
2019-05-03T19:14:04.696Z,4.72
2019-05-03T19:16:35.774Z,5.53
2019-05-03T19:19:04.709Z,5.40
2019-05-03T19:21:35.027Z,5.35
2019-05-03T19:24:04.846Z,5.33
2019-05-03T19:26:35.300Z,4.65
2019-05-03T19:29:09.995Z,4.08
2019-05-03T19:31:40.435Z,4.83
2019-05-03T19:34:11.305Z,4.60
2019-05-03T19:36:39.784Z,4.20
2019-05-03T19:39:08.697Z,4.95
2019-05-03T19:41:37.716Z,4.60
2019-05-03T19:44:10.526Z,4.83
2019-05-03T19:46:44.372Z,4.12
2019-05-03T19:49:15.375Z,4.72
2019-05-03T19:51:49.705Z,4.75
2019-05-03T19:54:19.366Z,4.80
2019-05-03T19:56:49.774Z,4.40
2019-05-03T19:59:25.796Z,5.30
2019-05-03T20:01:56.735Z,4.30
2019-05-03T20:04:29.507Z,4.60
2019-05-03T20:07:05.415Z,4.08
2019-05-03T20:09:35.154Z,4.33
2019-05-03T20:12:05.095Z,4.90
2019-05-03T20:14:35.582Z,4.10
2019-05-03T20:17:08.335Z,4.12
2019-05-03T20:19:38.926Z,4.33
2019-05-03T20:22:08.685Z,4.85
2019-05-03T20:24:37.865Z,4.20
2019-05-03T20:27:10.404Z,4.55
2019-05-03T20:29:39.295Z,4.37
2019-05-03T20:32:12.195Z,3.42
2019-05-03T20:34:44.775Z,4.15
2019-05-03T20:37:14.776Z,3.83
2019-05-03T20:39:48.714Z,4.23
2019-05-03T20:42:40.315Z,3.98
2019-05-03T20:45:10.418Z,4.03
2019-05-03T20:47:40.426Z,3.90
2019-05-03T20:50:17.235Z,4.00
2019-05-03T20:52:54.830Z,4.40
2019-05-03T20:55:25.659Z,3.83
2019-05-03T20:57:56.385Z,4.33
2019-05-03T21:00:28.065Z,4.50
2019-05-03T21:03:00.365Z,4.05
2019-05-03T21:05:34.626Z,4.33
2019-05-03T21:08:08.863Z,4.53
2019-05-03T21:10:37.805Z,4.00
2019-05-03T21:13:08.562Z,3.90
2019-05-03T21:15:39.306Z,4.03
2019-05-03T21:18:34.377Z,3.77
2019-05-03T21:21:05.098Z,4.40
2019-05-03T21:23:37.715Z,4.00
2019-05-03T21:26:13.535Z,4.50
2019-05-03T21:28:44.930Z,4.30
2019-05-03T21:31:15.974Z,4.58
2019-05-03T21:33:44.735Z,4.70
2019-05-03T21:36:17.715Z,4.40
2019-05-03T21:38:48.903Z,4.40
2019-05-03T21:41:18.305Z,4.00
2019-05-03T21:43:47.995Z,4.42
2019-05-03T21:46:29.124Z,4.37
2019-05-03T21:52:05.165Z,4.60
2019-05-03T21:54:40.894Z,4.62
2019-05-03T21:57:25.236Z,4.67
2019-05-03T22:00:09.590Z,5.05
2019-05-03T22:02:42.725Z,4.55
2019-05-03T22:05:26.409Z,4.87
2019-05-03T22:08:06.198Z,4.95
2019-05-03T22:11:00.165Z,5.17
2019-05-03T22:13:35.395Z,5.17
2019-05-03T22:16:15.503Z,5.03
2019-05-03T22:18:46.606Z,5.10
2019-05-03T22:21:17.144Z,4.80
2019-05-03T22:23:56.986Z,4.72
2019-05-03T22:26:47.003Z,5.42
2019-05-03T22:29:20.832Z,5.05
2019-05-03T22:31:54.876Z,5.78
2019-05-03T22:34:26.748Z,5.25
2019-05-03T22:37:01.663Z,5.42
2019-05-03T22:39:35.344Z,4.67
2019-05-03T22:42:05.908Z,5.00
2019-05-03T22:44:40.076Z,5.12
2019-05-03T22:47:10.245Z,4.92
2019-05-03T22:49:45.448Z,5.05
2019-05-03T22:52:15.282Z,5.50
2019-05-03T22:54:48.285Z,5.10
2019-05-03T22:57:22.195Z,5.08
2019-05-03T22:59:58.140Z,5.42
2019-05-03T23:02:31.754Z,4.90
2019-05-03T23:05:07.203Z,5.50
2019-05-03T23:07:37.487Z,5.10
2019-05-03T23:10:17.486Z,5.15
2019-05-03T23:12:51.175Z,4.90
2019-05-03T23:15:25.176Z,5.10
2019-05-03T23:17:56.114Z,4.65
2019-05-03T23:20:36.272Z,4.90
2019-05-03T23:23:08.137Z,5.17
2019-05-03T23:25:45.213Z,4.80
2019-05-03T23:28:20.245Z,4.47
2019-05-03T23:30:54.772Z,5.15
2019-05-03T23:33:30.833Z,4.92
2019-05-03T23:36:05.167Z,4.87
2019-05-03T23:38:35.305Z,5.05
2019-05-03T23:41:15.363Z,4.90
2019-05-03T23:43:46.765Z,4.70
2019-05-03T23:46:25.180Z,5.20
2019-05-03T23:48:55.255Z,4.53
2019-05-03T23:51:44.879Z,5.17
2019-05-03T23:54:18.606Z,5.45
2019-05-03T23:56:52.435Z,4.80
2019-05-03T23:59:22.440Z,4.50
